Time;durP1;ratioP1;P1;durP2;ratioP2;P2;SDS_P1;SDS_P2;PMS_P1;PMS_P2;Temp;Humidity;BMP_temperature;BMP_pressure;BME280_temperature;BME280_humidity;BME280_pressure;Samples;Min_cycle;Max_cycle;Signal;HPM_P1;HPM_P2
2024/03/15 00:00:36;;;;;;;;;;;25.80;47.10;;;;;;5071714;28;19909;-43
2024/03/15 00:03:01;;;;;;;;;;;25.80;47.00;;;;;;5070209;28;19909;-43
2024/03/15 00:05:29;;;;;;;;;;;25.80;47.00;;;;;;5076775;28;20019;-43
2024/03/15 00:07:55;;;;;;;;;;;25.80;46.90;;;;;;5087605;28;19955;-43
2024/03/15 00:10:22;;;;;;;;;;;25.80;46.90;;;;;;5068702;28;20462;-43
2024/03/15 00:12:49;;;;;;;;;;;25.80;46.90;;;;;;5068790;28;19934;-46
2024/03/15 00:15:16;;;;;;;;;;;25.80;46.90;;;;;;5082549;28;19919;-47
2024/03/15 00:17:42;;;;;;;;;;;25.80;47.00;;;;;;5076149;28;19912;-43
2024/03/15 00:20:10;;;;;;;;;;;25.70;47.00;;;;;;5073018;28;20006;-44
2024/03/15 00:22:36;;;;;;;;;;;25.70;47.00;;;;;;5074235;28;19979;-43
2024/03/15 00:25:02;;;;;;;;;;;25.70;47.00;;;;;;5075074;28;19908;-43
2024/03/15 00:27:28;;;;;;;;;;;25.70;47.00;;;;;;5071127;28;19943;-45
2024/03/15 00:29:54;;;;;;;;;;;25.70;47.00;;;;;;5071786;28;19920;-44
2024/03/15 00:32:20;;;;;;;;;;;25.70;47.10;;;;;;5075248;28;19916;-47
2024/03/15 00:34:46;;;;;;;;;;;25.60;47.10;;;;;;5075833;28;19936;-44
2024/03/15 00:37:11;;;;;;;;;;;25.60;47.10;;;;;;5071297;28;19913;-45
2024/03/15 00:39:37;;;;;;;;;;;25.60;47.10;;;;;;5071070;28;19909;-43
2024/03/15 00:42:03;;;;;;;;;;;25.60;47.10;;;;;;5073069;28;19909;-44
2024/03/15 00:44:29;;;;;;;;;;;25.60;47.10;;;;;;5069758;28;20575;-43
2024/03/15 00:46:55;;;;;;;;;;;25.60;47.00;;;;;;5064245;28;19917;-46
2024/03/15 00:49:21;;;;;;;;;;;25.60;47.10;;;;;;5080934;28;19919;-44
2024/03/15 00:51:47;;;;;;;;;;;25.60;47.00;;;;;;5078816;28;19908;-46
2024/03/15 00:54:13;;;;;;;;;;;25.50;47.00;;;;;;5071455;28;19944;-44
2024/03/15 00:56:39;;;;;;;;;;;25.50;46.90;;;;;;5069966;28;19929;-43
2024/03/15 00:59:05;;;;;;;;;;;25.50;46.90;;;;;;5064266;28;19984;-46
2024/03/15 01:01:31;;;;;;;;;;;25.50;46.90;;;;;;5068679;28;19951;-43
2024/03/15 01:03:57;;;;;;;;;;;25.50;46.90;;;;;;5071610;28;19939;-47
2024/03/15 01:06:24;;;;;;;;;;;25.40;46.90;;;;;;5064009;28;19943;-45
2024/03/15 01:08:53;;;;;;;;;;;25.40;46.90;;;;;;5063794;28;19920;-43
2024/03/15 01:11:20;;;;;;;;;;;25.40;46.90;;;;;;5072107;28;19919;-46
2024/03/15 01:13:48;;;;;;;;;;;25.40;46.90;;;;;;5072421;28;19912;-47
2024/03/15 01:16:14;;;;;;;;;;;25.40;46.90;;;;;;5070364;28;20643;-44
2024/03/15 01:18:41;;;;;;;;;;;25.30;46.80;;;;;;5070534;28;19908;-45
2024/03/15 01:21:08;;;;;;;;;;;25.30;46.80;;;;;;5071351;28;19965;-44
2024/03/15 01:23:35;;;;;;;;;;;25.30;46.80;;;;;;5064047;28;19999;-45
2024/03/15 01:26:01;;;;;;;;;;;25.30;46.80;;;;;;5065263;28;19912;-48
2024/03/15 01:28:29;;;;;;;;;;;25.20;46.80;;;;;;5076492;28;20009;-44
2024/03/15 01:30:57;;;;;;;;;;;25.20;46.80;;;;;;5067655;28;19912;-43
2024/03/15 01:33:24;;;;;;;;;;;25.20;46.70;;;;;;5073058;28;19962;-49
2024/03/15 01:35:51;;;;;;;;;;;25.20;46.70;;;;;;5069784;28;19912;-47
2024/03/15 01:38:18;;;;;;;;;;;25.20;46.80;;;;;;5070930;28;19909;-50
2024/03/15 01:40:44;;;;;;;;;;;25.10;46.80;;;;;;5071163;28;19908;-50
2024/03/15 01:43:14;;;;;;;;;;;25.10;46.70;;;;;;5077351;28;19943;-46
2024/03/15 01:45:41;;;;;;;;;;;25.10;46.70;;;;;;5072700;28;19924;-47
2024/03/15 01:48:07;;;;;;;;;;;25.10;46.70;;;;;;5071942;28;20304;-47
2024/03/15 01:50:37;;;;;;;;;;;25.00;46.70;;;;;;5062503;28;19935;-47
2024/03/15 01:53:04;;;;;;;;;;;25.00;46.70;;;;;;5067396;28;20561;-47
2024/03/15 01:55:32;;;;;;;;;;;25.00;46.70;;;;;;5075695;28;19916;-47
2024/03/15 01:58:00;;;;;;;;;;;25.00;46.80;;;;;;5073236;28;19916;-47
2024/03/15 02:00:26;;;;;;;;;;;25.00;46.80;;;;;;5070727;28;19909;-46
2024/03/15 02:02:52;;;;;;;;;;;25.00;46.80;;;;;;5068455;28;19919;-50
2024/03/15 02:05:20;;;;;;;;;;;24.90;46.80;;;;;;5062834;28;19920;-45
2024/03/15 02:07:46;;;;;;;;;;;24.90;46.70;;;;;;5063260;28;19920;-45
2024/03/15 02:10:13;;;;;;;;;;;24.90;46.70;;;;;;5064474;28;19912;-48
2024/03/15 02:12:41;;;;;;;;;;;24.80;46.80;;;;;;5068850;28;19912;-44
2024/03/15 02:15:08;;;;;;;;;;;24.80;46.70;;;;;;5077619;28;19913;-47
2024/03/15 02:17:37;;;;;;;;;;;24.80;46.90;;;;;;5075189;28;19908;-46
2024/03/15 02:20:11;;;;;;;;;;;24.80;46.80;;;;;;5071541;28;19913;-44
2024/03/15 02:22:39;;;;;;;;;;;24.80;46.90;;;;;;5073990;28;19954;-46
2024/03/15 02:25:07;;;;;;;;;;;24.70;46.80;;;;;;5065081;28;20636;-47
2024/03/15 02:27:33;;;;;;;;;;;24.70;46.80;;;;;;5062422;28;19928;-44
2024/03/15 02:30:00;;;;;;;;;;;24.70;46.80;;;;;;5062437;28;19920;-43
2024/03/15 02:32:28;;;;;;;;;;;24.70;46.90;;;;;;5070348;28;19909;-49
2024/03/15 02:34:54;;;;;;;;;;;24.60;46.90;;;;;;5067193;28;19908;-45
2024/03/15 02:37:20;;;;;;;;;;;24.60;46.90;;;;;;5101971;28;19912;-44
2024/03/15 02:39:47;;;;;;;;;;;24.60;46.90;;;;;;5077042;28;19915;-46
2024/03/15 02:42:13;;;;;;;;;;;24.60;47.50;;;;;;5081392;28;19999;-47
2024/03/15 02:44:40;;;;;;;;;;;24.60;46.90;;;;;;5073677;28;19925;-46
2024/03/15 02:47:08;;;;;;;;;;;24.50;46.90;;;;;;5081903;28;19920;-47
2024/03/15 02:49:36;;;;;;;;;;;24.50;47.00;;;;;;5074645;28;19966;-46
2024/03/15 02:52:03;;;;;;;;;;;24.50;47.00;;;;;;5074348;28;20855;-44
2024/03/15 02:54:29;;;;;;;;;;;24.50;47.00;;;;;;5081678;28;19918;-47
2024/03/15 02:56:57;;;;;;;;;;;24.40;47.00;;;;;;5070104;28;19912;-44
2024/03/15 02:59:26;;;;;;;;;;;24.40;47.00;;;;;;5067479;28;19913;-46
2024/03/15 03:01:52;;;;;;;;;;;24.40;47.00;;;;;;5079339;28;19916;-44
2024/03/15 03:04:18;;;;;;;;;;;24.40;47.00;;;;;;5065799;28;19987;-43
2024/03/15 03:06:45;;;;;;;;;;;24.30;47.00;;;;;;5065921;28;19921;-45
2024/03/15 03:09:18;;;;;;;;;;;24.30;47.00;;;;;;5068708;28;19931;-43
2024/03/15 03:11:44;;;;;;;;;;;24.30;47.10;;;;;;5068196;28;20026;-44
2024/03/15 03:14:12;;;;;;;;;;;24.30;47.10;;;;;;5065864;28;19976;-47
2024/03/15 03:16:42;;;;;;;;;;;24.30;47.10;;;;;;5073768;28;19920;-44
2024/03/15 03:19:10;;;;;;;;;;;24.20;47.10;;;;;;5066253;28;19913;-45
2024/03/15 03:21:36;;;;;;;;;;;24.20;47.10;;;;;;5067056;28;19913;-44
2024/03/15 03:24:03;;;;;;;;;;;24.20;47.10;;;;;;5075421;28;19909;-44
2024/03/15 03:26:29;;;;;;;;;;;24.20;47.10;;;;;;5077271;28;19923;-44
2024/03/15 03:28:56;;;;;;;;;;;24.10;47.10;;;;;;5068029;28;19919;-44
2024/03/15 03:31:22;;;;;;;;;;;24.10;47.10;;;;;;5073922;28;20408;-46
2024/03/15 03:33:49;;;;;;;;;;;24.10;47.10;;;;;;5067744;28;20631;-44
2024/03/15 03:36:15;;;;;;;;;;;24.10;47.20;;;;;;5074321;28;19982;-43
2024/03/15 03:38:42;;;;;;;;;;;24.10;47.20;;;;;;5071789;28;19951;-45
2024/03/15 03:41:08;;;;;;;;;;;24.00;47.20;;;;;;5073794;28;20163;-46
2024/03/15 03:43:35;;;;;;;;;;;24.00;47.20;;;;;;5071317;28;19943;-44
2024/03/15 03:46:06;;;;;;;;;;;24.00;47.80;;;;;;5074350;28;19912;-46
2024/03/15 03:48:33;;;;;;;;;;;24.00;47.20;;;;;;5076022;28;19918;-43
2024/03/15 03:51:00;;;;;;;;;;;24.00;47.20;;;;;;5074824;28;19912;-45
2024/03/15 03:53:27;;;;;;;;;;;23.90;47.20;;;;;;5079862;28;19972;-46
2024/03/15 03:55:53;;;;;;;;;;;23.90;47.20;;;;;;5081016;28;19931;-48
2024/03/15 03:58:23;;;;;;;;;;;23.90;47.30;;;;;;5077136;28;19913;-47
2024/03/15 04:00:49;;;;;;;;;;;23.80;47.30;;;;;;5073159;28;19934;-43
2024/03/15 04:03:15;;;;;;;;;;;23.80;47.30;;;;;;5076818;28;19948;-46
2024/03/15 04:05:42;;;;;;;;;;;23.80;47.30;;;;;;5084331;28;20289;-45
2024/03/15 04:08:08;;;;;;;;;;;23.80;47.40;;;;;;5068172;28;19987;-44
2024/03/15 04:10:36;;;;;;;;;;;23.80;47.40;;;;;;5076988;28;19908;-45
2024/03/15 04:13:02;;;;;;;;;;;23.70;47.30;;;;;;5068152;28;19908;-45
2024/03/15 04:15:28;;;;;;;;;;;23.70;47.40;;;;;;5065608;28;19912;-44
2024/03/15 04:17:55;;;;;;;;;;;23.70;47.40;;;;;;5066546;28;19991;-46
2024/03/15 04:20:22;;;;;;;;;;;23.70;47.40;;;;;;5083503;28;19908;-44
2024/03/15 04:22:48;;;;;;;;;;;23.70;47.40;;;;;;5071072;28;19940;-44
2024/03/15 04:25:19;;;;;;;;;;;23.60;47.40;;;;;;5076437;28;19972;-44
2024/03/15 04:27:46;;;;;;;;;;;23.60;47.50;;;;;;5076040;28;19920;-46
2024/03/15 04:30:16;;;;;;;;;;;23.60;47.50;;;;;;5072690;28;19912;-44
2024/03/15 04:32:47;;;;;;;;;;;23.60;47.50;;;;;;5074538;28;19963;-44
2024/03/15 04:35:16;;;;;;;;;;;23.60;47.50;;;;;;5067832;28;19913;-46
2024/03/15 04:37:42;;;;;;;;;;;23.50;47.50;;;;;;5083583;28;19920;-44
2024/03/15 04:40:10;;;;;;;;;;;23.50;47.50;;;;;;5083332;28;20744;-46
2024/03/15 04:42:36;;;;;;;;;;;23.50;47.50;;;;;;5083605;28;19943;-45
2024/03/15 04:45:08;;;;;;;;;;;23.50;47.60;;;;;;5083667;28;19904;-45
2024/03/15 04:47:35;;;;;;;;;;;23.50;47.60;;;;;;5069677;28;20381;-48
2024/03/15 04:50:01;;;;;;;;;;;23.50;47.60;;;;;;5066161;28;19920;-46
2024/03/15 04:52:27;;;;;;;;;;;23.40;47.60;;;;;;5075329;28;19912;-48
2024/03/15 04:54:53;;;;;;;;;;;23.40;47.60;;;;;;5067177;28;19913;-43
2024/03/15 04:57:22;;;;;;;;;;;23.40;47.60;;;;;;5073940;28;20349;-47
2024/03/15 04:59:47;;;;;;;;;;;23.30;47.60;;;;;;5071039;28;19959;-46
2024/03/15 05:02:13;;;;;;;;;;;23.30;47.60;;;;;;5074232;28;20554;-44
2024/03/15 05:04:41;;;;;;;;;;;23.30;47.60;;;;;;5071014;28;19920;-43
2024/03/15 05:07:07;;;;;;;;;;;23.30;47.70;;;;;;5072545;28;19931;-46
2024/03/15 05:09:33;;;;;;;;;;;23.20;47.70;;;;;;5064778;28;20015;-44
2024/03/15 05:11:58;;;;;;;;;;;23.20;47.80;;;;;;5071667;28;19960;-45
2024/03/15 05:14:24;;;;;;;;;;;23.20;47.70;;;;;;5064859;28;19989;-46
2024/03/15 05:16:54;;;;;;;;;;;23.20;47.80;;;;;;5064706;28;20011;-44
2024/03/15 05:19:19;;;;;;;;;;;23.20;47.80;;;;;;5071550;28;19909;-45
2024/03/15 05:21:45;;;;;;;;;;;23.20;47.80;;;;;;5073300;28;19939;-44
2024/03/15 05:24:11;;;;;;;;;;;23.10;47.80;;;;;;5071822;28;19908;-45
2024/03/15 05:26:38;;;;;;;;;;;23.10;47.80;;;;;;5064210;28;19917;-46
2024/03/15 05:29:07;;;;;;;;;;;23.10;47.80;;;;;;5081438;28;19913;-46
2024/03/15 05:31:33;;;;;;;;;;;23.10;47.90;;;;;;5081946;28;20003;-46
2024/03/15 05:33:58;;;;;;;;;;;23.00;47.80;;;;;;5073849;28;19915;-45
2024/03/15 05:36:27;;;;;;;;;;;23.00;47.90;;;;;;5080817;28;19913;-47
2024/03/15 05:38:53;;;;;;;;;;;23.00;47.90;;;;;;5074866;28;20496;-45
2024/03/15 05:41:19;;;;;;;;;;;23.00;47.90;;;;;;5080819;28;19923;-43
2024/03/15 05:43:45;;;;;;;;;;;22.90;47.90;;;;;;5067718;28;19920;-48
2024/03/15 05:46:13;;;;;;;;;;;22.90;47.90;;;;;;5067984;28;19916;-47
2024/03/15 05:48:39;;;;;;;;;;;22.90;47.90;;;;;;5071869;28;20405;-43
2024/03/15 05:51:06;;;;;;;;;;;22.90;47.90;;;;;;5075018;28;19916;-45
2024/03/15 05:53:32;;;;;;;;;;;22.90;48.00;;;;;;5070140;28;19912;-46
2024/03/15 05:55:58;;;;;;;;;;;22.80;47.90;;;;;;5076399;28;20389;-46
2024/03/15 05:58:24;;;;;;;;;;;22.90;48.30;;;;;;5075379;28;19944;-44
2024/03/15 06:00:50;;;;;;;;;;;22.90;48.40;;;;;;5074083;28;19917;-45
2024/03/15 06:03:16;;;;;;;;;;;22.90;48.40;;;;;;5077568;28;19916;-48
2024/03/15 06:05:42;;;;;;;;;;;22.90;48.40;;;;;;5067029;28;19913;-45
2024/03/15 06:08:10;;;;;;;;;;;22.90;48.40;;;;;;5079762;28;19928;-46
2024/03/15 06:10:39;;;;;;;;;;;22.80;48.40;;;;;;5075456;28;19944;-44
2024/03/15 06:13:05;;;;;;;;;;;22.80;48.40;;;;;;5077876;28;19912;-45
2024/03/15 06:15:31;;;;;;;;;;;22.80;48.40;;;;;;5074811;28;19917;-46
2024/03/15 06:17:56;;;;;;;;;;;22.80;48.40;;;;;;5074153;28;19920;-46
2024/03/15 06:20:22;;;;;;;;;;;22.80;48.50;;;;;;5105113;28;19915;-49
2024/03/15 06:22:48;;;;;;;;;;;22.80;48.70;;;;;;5075178;28;19913;-48
2024/03/15 06:25:14;;;;;;;;;;;22.90;48.80;;;;;;5074683;28;19915;-47
2024/03/15 06:27:41;;;;;;;;;;;22.80;48.70;;;;;;5076925;28;19931;-48
2024/03/15 06:30:07;;;;;;;;;;;22.80;48.70;;;;;;5079029;28;19909;-44
2024/03/15 06:32:38;;;;;;;;;;;22.80;48.70;;;;;;5081884;28;19912;-43
2024/03/15 06:35:18;;;;;;;;;;;22.80;48.70;;;;;;5071586;28;19908;-43
2024/03/15 06:37:44;;;;;;;;;;;22.80;48.70;;;;;;5078465;28;19931;-43
2024/03/15 06:40:19;;;;;;;;;;;22.70;48.60;;;;;;5070323;28;19951;-43
2024/03/15 06:45:52;;;;;;;;;;;22.70;48.90;;;;;;5076385;28;19916;-43
2024/03/15 06:48:22;;;;;;;;;;;22.80;49.10;;;;;;5076958;28;19967;-48
2024/03/15 06:52:31;;;;;;;;;;;22.80;49.00;;;;;;5075766;28;19935;-42
2024/03/15 06:53:37;;;;;;;;;;;22.80;49.00;;;;;;5078476;28;20445;-46
2024/03/15 06:56:03;;;;;;;;;;;22.80;49.00;;;;;;5071772;28;19913;-45
2024/03/15 06:58:28;;;;;;;;;;;22.70;48.90;;;;;;5074927;28;19912;-43
2024/03/15 07:00:54;;;;;;;;;;;22.70;48.90;;;;;;5073376;28;19913;-43
2024/03/15 07:03:20;;;;;;;;;;;22.70;48.90;;;;;;5078059;28;19920;-47
2024/03/15 07:05:46;;;;;;;;;;;22.70;49.00;;;;;;5079209;28;19912;-45
2024/03/15 07:08:14;;;;;;;;;;;22.80;49.20;;;;;;5078227;28;19942;-44
2024/03/15 07:10:40;;;;;;;;;;;22.80;49.20;;;;;;5076328;28;20013;-47
2024/03/15 07:13:06;;;;;;;;;;;22.80;49.20;;;;;;5076037;28;19920;-43
2024/03/15 07:15:32;;;;;;;;;;;22.80;49.70;;;;;;5080915;28;19909;-46
2024/03/15 07:18:04;;;;;;;;;;;22.80;49.70;;;;;;5072320;28;19912;-44
2024/03/15 07:20:31;;;;;;;;;;;22.70;49.10;;;;;;5077718;28;19967;-45
2024/03/15 07:22:58;;;;;;;;;;;22.70;49.00;;;;;;5076244;28;20353;-43
2024/03/15 07:25:24;;;;;;;;;;;22.70;49.00;;;;;;5073200;28;19919;-44
2024/03/15 07:27:51;;;;;;;;;;;22.70;49.20;;;;;;5073279;28;19925;-44
2024/03/15 07:30:19;;;;;;;;;;;22.70;49.30;;;;;;5075247;28;19913;-45
2024/03/15 07:32:45;;;;;;;;;;;22.80;49.30;;;;;;5072629;28;20636;-44
2024/03/15 07:35:11;;;;;;;;;;;22.80;49.30;;;;;;5079166;28;20007;-46
2024/03/15 07:37:37;;;;;;;;;;;22.70;49.20;;;;;;5082436;28;20277;-43
2024/03/15 07:40:08;;;;;;;;;;;22.70;49.20;;;;;;5072051;28;19935;-43
2024/03/15 07:42:35;;;;;;;;;;;22.70;49.80;;;;;;5074842;28;19943;-45
2024/03/15 07:45:01;;;;;;;;;;;22.70;49.20;;;;;;5075328;28;19913;-44
2024/03/15 07:47:27;;;;;;;;;;;22.70;49.20;;;;;;5074849;28;19927;-46
2024/03/15 07:49:54;;;;;;;;;;;22.70;49.30;;;;;;5072899;28;20296;-46
2024/03/15 07:52:20;;;;;;;;;;;22.70;49.40;;;;;;5077460;28;19916;-44
2024/03/15 07:54:46;;;;;;;;;;;22.70;49.40;;;;;;5077952;28;19937;-46
2024/03/15 07:57:12;;;;;;;;;;;22.80;49.40;;;;;;5086901;28;19913;-48
2024/03/15 07:59:39;;;;;;;;;;;22.70;49.40;;;;;;5069468;28;19913;-44
2024/03/15 08:02:05;;;;;;;;;;;22.70;49.30;;;;;;5068173;28;19991;-47
2024/03/15 08:04:31;;;;;;;;;;;22.70;49.40;;;;;;5073128;28;19920;-47
2024/03/15 08:06:57;;;;;;;;;;;22.70;49.30;;;;;;5072988;28;19920;-44
2024/03/15 08:09:23;;;;;;;;;;;22.70;49.30;;;;;;5073042;28;20007;-45
2024/03/15 08:11:49;;;;;;;;;;;22.70;49.50;;;;;;5073421;28;19959;-46
2024/03/15 08:14:15;;;;;;;;;;;22.70;49.60;;;;;;5072805;28;19912;-46
2024/03/15 08:16:44;;;;;;;;;;;22.70;49.50;;;;;;5065837;28;19995;-43
2024/03/15 08:19:10;;;;;;;;;;;22.70;49.50;;;;;;5067956;28;19916;-46
2024/03/15 08:21:36;;;;;;;;;;;22.70;49.50;;;;;;5078929;28;19912;-44
2024/03/15 08:24:05;;;;;;;;;;;22.70;49.50;;;;;;5082117;28;19909;-42
2024/03/15 08:26:34;;;;;;;;;;;22.70;49.40;;;;;;5076135;28;19920;-44
2024/03/15 08:29:00;;;;;;;;;;;22.60;49.40;;;;;;5073991;28;19916;-43
2024/03/15 08:31:31;;;;;;;;;;;22.70;49.90;;;;;;5078699;28;19909;-46
2024/03/15 08:34:02;;;;;;;;;;;22.70;49.70;;;;;;5068466;28;19912;-45
2024/03/15 08:36:29;;;;;;;;;;;22.70;49.70;;;;;;5065313;28;19913;-46
2024/03/15 08:38:55;;;;;;;;;;;22.70;49.60;;;;;;5068280;28;19979;-43
2024/03/15 08:41:21;;;;;;;;;;;22.70;49.60;;;;;;5071649;28;19948;-44
2024/03/15 08:43:49;;;;;;;;;;;22.70;49.60;;;;;;5078880;28;19916;-46
2024/03/15 08:46:15;;;;;;;;;;;22.70;49.60;;;;;;5068305;28;19913;-49
2024/03/15 08:48:42;;;;;;;;;;;22.60;49.50;;;;;;5071522;28;19969;-50
2024/03/15 08:51:09;;;;;;;;;;;22.60;49.60;;;;;;5066357;28;19924;-48
2024/03/15 08:53:35;;;;;;;;;;;22.70;49.80;;;;;;5071173;28;19980;-50
2024/03/15 08:56:01;;;;;;;;;;;22.70;49.80;;;;;;5072415;28;19912;-47
2024/03/15 08:58:27;;;;;;;;;;;22.70;49.70;;;;;;5070680;28;20284;-46
2024/03/15 09:00:56;;;;;;;;;;;22.70;49.70;;;;;;5071253;28;19949;-48
2024/03/15 09:03:22;;;;;;;;;;;22.70;49.70;;;;;;5071088;28;19919;-48
2024/03/15 09:05:48;;;;;;;;;;;22.70;49.70;;;;;;5074941;28;19939;-51
2024/03/15 09:08:14;;;;;;;;;;;22.70;49.70;;;;;;5064935;28;20528;-47
2024/03/15 09:10:40;;;;;;;;;;;22.60;49.60;;;;;;5070926;28;19920;-46
2024/03/15 09:13:06;;;;;;;;;;;22.60;49.80;;;;;;5064119;28;20327;-43
2024/03/15 09:15:33;;;;;;;;;;;22.70;49.80;;;;;;5063971;28;19909;-47
2024/03/15 09:17:59;;;;;;;;;;;22.70;49.80;;;;;;5071691;28;19915;-47
2024/03/15 09:22:57;;;;;;;;;;;22.70;49.80;;;;;;5072464;28;20363;-46
2024/03/15 09:25:23;;;;;;;;;;;22.70;49.80;;;;;;5064206;28;19912;-47
2024/03/15 09:27:52;;;;;;;;;;;22.70;49.80;;;;;;5070631;28;20030;-51
2024/03/15 09:30:20;;;;;;;;;;;22.60;49.70;;;;;;5070775;28;19913;-47
2024/03/15 09:32:51;;;;;;;;;;;22.60;49.80;;;;;;5066401;28;19913;-44
2024/03/15 09:35:17;;;;;;;;;;;22.60;49.90;;;;;;5073999;28;19908;-49
2024/03/15 09:37:51;;;;;;;;;;;22.70;50.00;;;;;;5067707;28;19944;-47
2024/03/15 09:40:18;;;;;;;;;;;22.70;49.90;;;;;;5063518;28;19908;-46
2024/03/15 09:42:44;;;;;;;;;;;22.70;49.90;;;;;;5062692;28;19963;-47
2024/03/15 09:45:11;;;;;;;;;;;22.70;49.90;;;;;;5071990;28;19916;-46
2024/03/15 09:47:37;;;;;;;;;;;22.70;49.90;;;;;;5063623;28;19928;-48
2024/03/15 09:50:03;;;;;;;;;;;22.60;49.80;;;;;;5083468;28;19912;-52
2024/03/15 09:52:30;;;;;;;;;;;22.60;49.80;;;;;;5067753;28;20008;-48
2024/03/15 09:54:56;;;;;;;;;;;22.60;49.90;;;;;;5070620;28;20424;-45
2024/03/15 09:57:22;;;;;;;;;;;22.70;50.00;;;;;;5066726;28;20434;-45
2024/03/15 09:59:48;;;;;;;;;;;22.70;50.00;;;;;;5080142;28;19912;-47
2024/03/15 10:02:22;;;;;;;;;;;22.70;50.00;;;;;;5073666;28;19954;-46
2024/03/15 10:04:49;;;;;;;;;;;22.70;49.90;;;;;;5061907;28;19913;-45
2024/03/15 10:07:15;;;;;;;;;;;22.70;50.00;;;;;;5070744;28;19920;-47
2024/03/15 10:09:41;;;;;;;;;;;22.60;49.90;;;;;;5063476;28;19916;-46
2024/03/15 10:12:09;;;;;;;;;;;22.60;49.90;;;;;;5073585;28;21647;-45
2024/03/15 10:14:35;;;;;;;;;;;22.60;49.90;;;;;;5067233;28;20694;-45
2024/03/15 10:17:00;;;;;;;;;;;22.70;50.10;;;;;;5062932;28;19916;-44
2024/03/15 10:19:28;;;;;;;;;;;22.70;50.00;;;;;;5070097;28;19942;-46
2024/03/15 10:21:57;;;;;;;;;;;22.70;50.00;;;;;;5065926;28;19913;-47
2024/03/15 10:24:24;;;;;;;;;;;22.70;50.00;;;;;;5063780;28;19916;-46
2024/03/15 10:26:51;;;;;;;;;;;22.70;50.00;;;;;;5070085;28;20026;-44
2024/03/15 10:29:17;;;;;;;;;;;22.60;50.00;;;;;;5072724;28;19974;-45
2024/03/15 10:31:42;;;;;;;;;;;22.60;49.90;;;;;;5077879;28;19913;-45
2024/03/15 10:34:11;;;;;;;;;;;22.60;49.90;;;;;;5072799;28;19917;-44
2024/03/15 10:36:38;;;;;;;;;;;22.60;50.00;;;;;;5073173;28;19912;-45
2024/03/15 10:39:04;;;;;;;;;;;22.70;50.20;;;;;;5073022;28;20381;-46
2024/03/15 10:41:30;;;;;;;;;;;22.70;50.10;;;;;;5069233;28;19983;-45
2024/03/15 10:43:57;;;;;;;;;;;22.70;50.10;;;;;;5063261;28;19923;-43
2024/03/15 10:46:23;;;;;;;;;;;22.70;50.10;;;;;;5076913;28;19966;-43
2024/03/15 10:48:49;;;;;;;;;;;22.60;50.00;;;;;;5073770;28;19917;-46
2024/03/15 10:51:15;;;;;;;;;;;22.60;50.00;;;;;;5064124;28;19942;-43
2024/03/15 10:53:41;;;;;;;;;;;22.60;50.00;;;;;;5072039;28;20011;-44
2024/03/15 10:56:07;;;;;;;;;;;22.60;50.10;;;;;;5066059;28;20708;-44
2024/03/15 10:58:33;;;;;;;;;;;22.70;50.20;;;;;;5073357;28;19908;-44
2024/03/15 11:01:00;;;;;;;;;;;22.70;50.20;;;;;;5074218;28;19916;-45
2024/03/15 11:03:28;;;;;;;;;;;22.70;50.20;;;;;;5078254;28;19913;-46
2024/03/15 11:05:54;;;;;;;;;;;22.60;50.10;;;;;;5083172;28;19927;-44
2024/03/15 11:08:21;;;;;;;;;;;22.60;50.10;;;;;;5072954;28;19920;-45
2024/03/15 11:10:56;;;;;;;;;;;22.60;50.10;;;;;;5071871;28;19908;-48
2024/03/15 11:13:23;;;;;;;;;;;22.60;50.10;;;;;;5069997;28;20319;-46
2024/03/15 11:15:49;;;;;;;;;;;22.60;50.20;;;;;;5076352;28;19928;-44
2024/03/15 11:18:15;;;;;;;;;;;22.60;50.70;;;;;;5083894;28;19919;-46
2024/03/15 11:20:52;;;;;;;;;;;22.70;50.30;;;;;;5083726;28;19912;-45
2024/03/15 11:23:18;;;;;;;;;;;22.70;50.30;;;;;;5079820;28;20050;-46
2024/03/15 11:25:56;;;;;;;;;;;22.70;50.20;;;;;;5066481;28;19916;-45
2024/03/15 11:28:25;;;;;;;;;;;22.60;50.20;;;;;;5076967;28;19916;-46
2024/03/15 11:30:51;;;;;;;;;;;22.60;50.20;;;;;;5076724;28;19939;-49
2024/03/15 11:33:17;;;;;;;;;;;22.60;50.20;;;;;;5080557;28;19912;-44
2024/03/15 11:35:44;;;;;;;;;;;22.60;50.30;;;;;;5075226;28;19913;-45
2024/03/15 11:38:16;;;;;;;;;;;22.60;50.40;;;;;;5074711;28;19912;-49
2024/03/15 11:40:42;;;;;;;;;;;22.70;50.40;;;;;;5076068;28;19920;-44
2024/03/15 11:43:08;;;;;;;;;;;22.70;50.30;;;;;;5081728;28;19977;-45
2024/03/15 11:45:35;;;;;;;;;;;22.70;50.30;;;;;;5080105;28;19913;-43
2024/03/15 11:48:01;;;;;;;;;;;22.70;50.30;;;;;;5073283;28;19924;-44
2024/03/15 11:50:27;;;;;;;;;;;22.60;50.30;;;;;;5066041;28;19959;-45
2024/03/15 11:52:59;;;;;;;;;;;22.60;50.20;;;;;;5072518;28;19919;-45
2024/03/15 11:55:25;;;;;;;;;;;22.60;50.20;;;;;;5065886;28;19948;-45
2024/03/15 11:57:51;;;;;;;;;;;22.60;50.40;;;;;;5072443;28;19924;-45
2024/03/15 12:00:20;;;;;;;;;;;22.70;50.50;;;;;;5075365;28;19909;-45
2024/03/15 12:02:53;;;;;;;;;;;22.70;50.40;;;;;;5077772;28;19919;-44
2024/03/15 12:05:19;;;;;;;;;;;22.70;50.40;;;;;;5069185;28;19919;-44
2024/03/15 12:07:45;;;;;;;;;;;22.60;50.40;;;;;;5072555;28;19917;-44
2024/03/15 12:10:11;;;;;;;;;;;22.60;50.30;;;;;;5075262;28;20304;-47
2024/03/15 12:12:37;;;;;;;;;;;22.60;50.30;;;;;;5076627;28;19912;-49
2024/03/15 12:15:05;;;;;;;;;;;22.60;50.30;;;;;;5073691;28;19912;-45
2024/03/15 12:17:31;;;;;;;;;;;22.60;50.50;;;;;;5065650;28;19931;-44
2024/03/15 12:19:58;;;;;;;;;;;22.70;50.60;;;;;;5065398;28;19913;-45
2024/03/15 12:22:24;;;;;;;;;;;22.70;50.50;;;;;;5077366;28;19937;-45
2024/03/15 12:24:51;;;;;;;;;;;22.70;50.50;;;;;;5078517;28;19967;-46
2024/03/15 12:27:18;;;;;;;;;;;22.70;50.50;;;;;;5081965;28;19979;-47
2024/03/15 12:29:44;;;;;;;;;;;22.60;50.40;;;;;;5075384;28;19912;-45
2024/03/15 12:32:11;;;;;;;;;;;22.60;50.40;;;;;;5069689;28;19984;-45
2024/03/15 12:34:37;;;;;;;;;;;22.60;50.40;;;;;;5077066;28;19912;-44
2024/03/15 12:37:03;;;;;;;;;;;22.60;50.50;;;;;;5074833;28;19966;-44
2024/03/15 12:39:29;;;;;;;;;;;22.70;50.60;;;;;;5073167;28;19999;-48
2024/03/15 12:41:55;;;;;;;;;;;22.70;50.60;;;;;;5081620;28;19919;-44
2024/03/15 12:44:21;;;;;;;;;;;22.70;50.60;;;;;;5074891;28;19924;-45
2024/03/15 12:46:47;;;;;;;;;;;22.70;50.50;;;;;;5075727;28;19983;-45
2024/03/15 12:49:13;;;;;;;;;;;22.60;50.60;;;;;;5073892;28;19919;-44
2024/03/15 12:51:39;;;;;;;;;;;22.60;50.50;;;;;;5082301;28;20346;-45
2024/03/15 12:54:05;;;;;;;;;;;22.60;50.50;;;;;;5080478;28;20264;-43
2024/03/15 12:56:31;;;;;;;;;;;22.60;50.60;;;;;;5075981;28;19924;-45
2024/03/15 12:58:57;;;;;;;;;;;22.70;50.70;;;;;;5081311;28;19913;-43
2024/03/15 13:01:22;;;;;;;;;;;22.70;50.60;;;;;;5074604;28;19912;-43
2024/03/15 13:03:48;;;;;;;;;;;22.70;50.70;;;;;;5074577;28;19913;-47
2024/03/15 13:06:14;;;;;;;;;;;22.70;50.70;;;;;;5078721;28;19912;-46
2024/03/15 13:08:40;;;;;;;;;;;22.70;50.60;;;;;;5071852;28;20544;-43
2024/03/15 13:11:08;;;;;;;;;;;22.70;50.60;;;;;;5079164;28;20281;-45
2024/03/15 13:13:35;;;;;;;;;;;22.70;50.60;;;;;;5073740;28;19935;-45
2024/03/15 13:16:01;;;;;;;;;;;22.60;50.50;;;;;;5072020;28;19916;-46
2024/03/15 13:18:26;;;;;;;;;;;22.70;50.70;;;;;;5070593;28;19919;-44
2024/03/15 13:20:52;;;;;;;;;;;22.70;50.70;;;;;;5065736;28;19913;-49
2024/03/15 13:23:18;;;;;;;;;;;22.80;50.70;;;;;;5070099;28;19913;-46
2024/03/15 13:25:45;;;;;;;;;;;22.70;50.70;;;;;;5071326;28;19915;-49
2024/03/15 13:28:11;;;;;;;;;;;22.70;50.70;;;;;;5075697;28;19916;-45
2024/03/15 13:30:37;;;;;;;;;;;22.70;50.70;;;;;;5089606;28;20006;-44
2024/03/15 13:33:03;;;;;;;;;;;22.70;50.60;;;;;;5080746;28;19912;-45
2024/03/15 13:35:30;;;;;;;;;;;22.70;50.60;;;;;;5083192;28;19938;-45
2024/03/15 13:37:56;;;;;;;;;;;22.70;50.60;;;;;;5074696;28;20332;-45
2024/03/15 13:40:22;;;;;;;;;;;22.80;50.80;;;;;;5085108;28;19912;-44
2024/03/15 13:42:50;;;;;;;;;;;22.80;50.90;;;;;;5082866;28;20237;-45
2024/03/15 13:45:16;;;;;;;;;;;22.80;50.80;;;;;;5072815;28;19913;-44
2024/03/15 13:47:42;;;;;;;;;;;22.80;50.80;;;;;;5076049;28;19951;-43
2024/03/15 13:50:15;;;;;;;;;;;22.80;50.80;;;;;;5072218;28;19943;-47
2024/03/15 13:52:44;;;;;;;;;;;22.80;50.70;;;;;;5069944;28;19912;-44
2024/03/15 13:55:11;;;;;;;;;;;22.80;50.70;;;;;;5065681;28;19913;-47
2024/03/15 13:57:37;;;;;;;;;;;22.70;50.60;;;;;;5075390;28;19912;-45
2024/03/15 14:00:27;;;;;;;;;;;22.70;50.70;;;;;;5075091;28;19935;-43
2024/03/15 14:02:50;;;;;;;;;;;22.80;51.00;;;;;;5063750;28;20498;-45
2024/03/15 14:05:15;;;;;;;;;;;22.90;51.00;;;;;;5073944;28;19916;-43
2024/03/15 14:07:42;;;;;;;;;;;22.90;51.00;;;;;;5074710;28;19920;-47
2024/03/15 14:10:17;;;;;;;;;;;22.90;51.00;;;;;;5078492;28;19920;-45
2024/03/15 14:12:43;;;;;;;;;;;22.80;51.00;;;;;;5069771;28;19912;-44
2024/03/15 14:15:11;;;;;;;;;;;22.80;50.90;;;;;;5068074;28;19912;-47
2024/03/15 14:17:37;;;;;;;;;;;22.80;50.80;;;;;;5069895;28;19989;-44
2024/03/15 14:20:06;;;;;;;;;;;22.80;50.80;;;;;;5072033;28;19952;-44